TAF KTYS
KTYS 090531Z 0906/1006 21006KT P6SM SKC FM100300 24006KT P6SM SCT040=
METAR KTYS
WC KTYS
WS KTYS
WV KTYS